sensor_id;sensor_type;location;lat;lon;timestamp;P1;durP1;ratioP1;P2;durP2;ratioP2
48268;SDS011;34088;52.232;5.196;2023-11-21T00:01:37;47.97;;;23.20;;
48268;SDS011;34088;52.232;5.196;2023-11-21T00:04:02;46.50;;;22.42;;
48268;SDS011;34088;52.232;5.196;2023-11-21T00:06:28;42.53;;;23.02;;
48268;SDS011;34088;52.232;5.196;2023-11-21T00:08:55;41.03;;;21.48;;
48268;SDS011;34088;52.232;5.196;2023-11-21T00:11:20;49.20;;;23.23;;
48268;SDS011;34088;52.232;5.196;2023-11-21T00:13:46;41.28;;;21.85;;
48268;SDS011;34088;52.232;5.196;2023-11-21T00:16:11;55.80;;;23.43;;
48268;SDS011;34088;52.232;5.196;2023-11-21T00:18:36;39.93;;;22.10;;
48268;SDS011;34088;52.232;5.196;2023-11-21T00:33:29;46.05;;;22.20;;
48268;SDS011;34088;52.232;5.196;2023-11-21T00:35:54;50.60;;;24.10;;
48268;SDS011;34088;52.232;5.196;2023-11-21T00:38:19;48.03;;;22.65;;
48268;SDS011;34088;52.232;5.196;2023-11-21T00:40:45;43.63;;;22.48;;
48268;SDS011;34088;52.232;5.196;2023-11-21T00:43:10;49.67;;;22.98;;
48268;SDS011;34088;52.232;5.196;2023-11-21T00:45:36;53.37;;;22.67;;
48268;SDS011;34088;52.232;5.196;2023-11-21T00:48:01;42.75;;;22.15;;
48268;SDS011;34088;52.232;5.196;2023-11-21T00:50:29;42.83;;;21.50;;
48268;SDS011;34088;52.232;5.196;2023-11-21T00:52:55;41.90;;;22.73;;
48268;SDS011;34088;52.232;5.196;2023-11-21T00:55:20;46.95;;;22.73;;
48268;SDS011;34088;52.232;5.196;2023-11-21T00:57:46;43.33;;;22.15;;
48268;SDS011;34088;52.232;5.196;2023-11-21T01:00:11;40.23;;;21.07;;
48268;SDS011;34088;52.232;5.196;2023-11-21T01:02:41;40.25;;;20.90;;
48268;SDS011;34088;52.232;5.196;2023-11-21T01:05:08;46.28;;;22.05;;
48268;SDS011;34088;52.232;5.196;2023-11-21T01:07:33;42.47;;;21.27;;
48268;SDS011;34088;52.232;5.196;2023-11-21T01:09:59;49.85;;;22.95;;
48268;SDS011;34088;52.232;5.196;2023-11-21T01:12:24;46.63;;;23.00;;
48268;SDS011;34088;52.232;5.196;2023-11-21T01:14:50;41.38;;;22.08;;
48268;SDS011;34088;52.232;5.196;2023-11-21T01:17:15;49.83;;;22.00;;
48268;SDS011;34088;52.232;5.196;2023-11-21T01:19:41;42.83;;;21.65;;
48268;SDS011;34088;52.232;5.196;2023-11-21T01:22:07;45.70;;;20.77;;
48268;SDS011;34088;52.232;5.196;2023-11-21T01:24:33;44.35;;;22.10;;
48268;SDS011;34088;52.232;5.196;2023-11-21T01:26:59;34.78;;;19.75;;
48268;SDS011;34088;52.232;5.196;2023-11-21T01:29:24;41.40;;;21.75;;
48268;SDS011;34088;52.232;5.196;2023-11-21T01:31:49;41.23;;;21.30;;
48268;SDS011;34088;52.232;5.196;2023-11-21T01:36:40;47.37;;;22.10;;
48268;SDS011;34088;52.232;5.196;2023-11-21T01:39:05;35.00;;;20.87;;
48268;SDS011;34088;52.232;5.196;2023-11-21T01:41:33;37.17;;;19.75;;
48268;SDS011;34088;52.232;5.196;2023-11-21T01:44:00;39.47;;;19.90;;
48268;SDS011;34088;52.232;5.196;2023-11-21T01:46:25;36.55;;;19.80;;
48268;SDS011;34088;52.232;5.196;2023-11-21T01:48:51;34.40;;;20.02;;
48268;SDS011;34088;52.232;5.196;2023-11-21T01:51:18;39.30;;;20.45;;
48268;SDS011;34088;52.232;5.196;2023-11-21T01:53:44;34.13;;;19.13;;
48268;SDS011;34088;52.232;5.196;2023-11-21T01:56:11;32.75;;;19.15;;
48268;SDS011;34088;52.232;5.196;2023-11-21T01:58:38;36.45;;;19.23;;
48268;SDS011;34088;52.232;5.196;2023-11-21T02:01:04;36.15;;;19.15;;
48268;SDS011;34088;52.232;5.196;2023-11-21T02:03:30;39.17;;;18.45;;
48268;SDS011;34088;52.232;5.196;2023-11-21T02:05:56;38.95;;;18.70;;
48268;SDS011;34088;52.232;5.196;2023-11-21T02:08:21;34.10;;;17.92;;
48268;SDS011;34088;52.232;5.196;2023-11-21T02:10:46;32.03;;;18.07;;
48268;SDS011;34088;52.232;5.196;2023-11-21T02:13:12;31.80;;;17.38;;
48268;SDS011;34088;52.232;5.196;2023-11-21T02:15:38;33.20;;;17.95;;
48268;SDS011;34088;52.232;5.196;2023-11-21T02:18:03;34.58;;;18.27;;
48268;SDS011;34088;52.232;5.196;2023-11-21T02:20:31;34.53;;;17.90;;
48268;SDS011;34088;52.232;5.196;2023-11-21T02:22:59;42.60;;;18.77;;
48268;SDS011;34088;52.232;5.196;2023-11-21T02:25:25;33.33;;;17.80;;
48268;SDS011;34088;52.232;5.196;2023-11-21T02:27:53;40.72;;;18.63;;
48268;SDS011;34088;52.232;5.196;2023-11-21T02:30:19;34.72;;;17.95;;
48268;SDS011;34088;52.232;5.196;2023-11-21T02:32:46;32.35;;;17.20;;
48268;SDS011;34088;52.232;5.196;2023-11-21T02:35:13;30.70;;;16.77;;
48268;SDS011;34088;52.232;5.196;2023-11-21T02:37:38;33.10;;;17.20;;
48268;SDS011;34088;52.232;5.196;2023-11-21T02:40:04;32.70;;;16.95;;
48268;SDS011;34088;52.232;5.196;2023-11-21T02:42:31;33.78;;;16.75;;
48268;SDS011;34088;52.232;5.196;2023-11-21T02:44:56;36.47;;;16.50;;
48268;SDS011;34088;52.232;5.196;2023-11-21T02:47:22;36.45;;;16.58;;
48268;SDS011;34088;52.232;5.196;2023-11-21T02:49:48;34.72;;;17.27;;
48268;SDS011;34088;52.232;5.196;2023-11-21T02:52:13;27.85;;;15.38;;
48268;SDS011;34088;52.232;5.196;2023-11-21T02:54:39;34.03;;;15.87;;
48268;SDS011;34088;52.232;5.196;2023-11-21T02:59:29;27.05;;;15.25;;
48268;SDS011;34088;52.232;5.196;2023-11-21T03:01:54;29.67;;;15.77;;
48268;SDS011;34088;52.232;5.196;2023-11-21T03:04:21;33.47;;;16.73;;
48268;SDS011;34088;52.232;5.196;2023-11-21T03:06:47;33.93;;;15.80;;
48268;SDS011;34088;52.232;5.196;2023-11-21T03:09:12;35.30;;;17.37;;
48268;SDS011;34088;52.232;5.196;2023-11-21T03:14:03;31.13;;;15.00;;
48268;SDS011;34088;52.232;5.196;2023-11-21T03:16:28;29.52;;;15.35;;
48268;SDS011;34088;52.232;5.196;2023-11-21T03:18:54;32.70;;;15.90;;
48268;SDS011;34088;52.232;5.196;2023-11-21T03:21:19;33.97;;;15.85;;
48268;SDS011;34088;52.232;5.196;2023-11-21T03:23:45;31.42;;;15.45;;
48268;SDS011;34088;52.232;5.196;2023-11-21T03:26:13;37.10;;;16.20;;
48268;SDS011;34088;52.232;5.196;2023-11-21T03:28:38;33.80;;;15.55;;
48268;SDS011;34088;52.232;5.196;2023-11-21T03:31:04;30.73;;;14.85;;
48268;SDS011;34088;52.232;5.196;2023-11-21T03:33:31;34.30;;;15.40;;
48268;SDS011;34088;52.232;5.196;2023-11-21T03:35:56;30.27;;;14.82;;
48268;SDS011;34088;52.232;5.196;2023-11-21T03:38:22;31.47;;;15.47;;
48268;SDS011;34088;52.232;5.196;2023-11-21T03:40:48;32.45;;;15.90;;
48268;SDS011;34088;52.232;5.196;2023-11-21T03:43:14;35.30;;;15.95;;
48268;SDS011;34088;52.232;5.196;2023-11-21T03:48:05;33.83;;;15.23;;
48268;SDS011;34088;52.232;5.196;2023-11-21T03:52:57;33.03;;;14.25;;
48268;SDS011;34088;52.232;5.196;2023-11-21T03:57:49;37.35;;;15.07;;
48268;SDS011;34088;52.232;5.196;2023-11-21T04:00:14;31.50;;;15.23;;
48268;SDS011;34088;52.232;5.196;2023-11-21T04:05:05;31.02;;;13.93;;
48268;SDS011;34088;52.232;5.196;2023-11-21T04:07:32;31.77;;;14.35;;
48268;SDS011;34088;52.232;5.196;2023-11-21T04:09:57;34.22;;;14.55;;
48268;SDS011;34088;52.232;5.196;2023-11-21T04:12:22;30.20;;;14.83;;
48268;SDS011;34088;52.232;5.196;2023-11-21T04:14:48;31.77;;;14.15;;
48268;SDS011;34088;52.232;5.196;2023-11-21T04:17:13;31.88;;;14.88;;
48268;SDS011;34088;52.232;5.196;2023-11-21T04:19:38;34.13;;;15.32;;
48268;SDS011;34088;52.232;5.196;2023-11-21T04:22:04;38.10;;;14.63;;
48268;SDS011;34088;52.232;5.196;2023-11-21T04:24:29;38.25;;;15.32;;
48268;SDS011;34088;52.232;5.196;2023-11-21T04:26:55;30.75;;;14.55;;
48268;SDS011;34088;52.232;5.196;2023-11-21T04:29:20;35.05;;;15.13;;
48268;SDS011;34088;52.232;5.196;2023-11-21T04:34:11;41.72;;;15.23;;
48268;SDS011;34088;52.232;5.196;2023-11-21T04:39:02;33.58;;;14.45;;
48268;SDS011;34088;52.232;5.196;2023-11-21T04:41:27;36.00;;;14.32;;
48268;SDS011;34088;52.232;5.196;2023-11-21T04:43:53;37.53;;;14.32;;
48268;SDS011;34088;52.232;5.196;2023-11-21T04:46:18;36.08;;;16.80;;
48268;SDS011;34088;52.232;5.196;2023-11-21T04:51:09;34.20;;;16.17;;
48268;SDS011;34088;52.232;5.196;2023-11-21T04:53:36;28.98;;;14.52;;
48268;SDS011;34088;52.232;5.196;2023-11-21T04:56:02;36.20;;;15.80;;
48268;SDS011;34088;52.232;5.196;2023-11-21T04:58:28;34.42;;;15.18;;
48268;SDS011;34088;52.232;5.196;2023-11-21T05:00:53;35.40;;;16.00;;
48268;SDS011;34088;52.232;5.196;2023-11-21T05:03:19;38.93;;;17.50;;
48268;SDS011;34088;52.232;5.196;2023-11-21T05:05:44;31.75;;;16.50;;
48268;SDS011;34088;52.232;5.196;2023-11-21T05:08:09;35.28;;;15.50;;
48268;SDS011;34088;52.232;5.196;2023-11-21T05:10:35;41.92;;;16.80;;
48268;SDS011;34088;52.232;5.196;2023-11-21T05:13:03;39.10;;;16.50;;
48268;SDS011;34088;52.232;5.196;2023-11-21T05:15:28;37.65;;;17.02;;
48268;SDS011;34088;52.232;5.196;2023-11-21T05:17:54;41.70;;;17.40;;
48268;SDS011;34088;52.232;5.196;2023-11-21T05:22:48;39.72;;;17.50;;
48268;SDS011;34088;52.232;5.196;2023-11-21T05:25:14;43.90;;;18.00;;
48268;SDS011;34088;52.232;5.196;2023-11-21T05:30:05;33.25;;;16.65;;
48268;SDS011;34088;52.232;5.196;2023-11-21T05:32:32;45.22;;;18.40;;
48268;SDS011;34088;52.232;5.196;2023-11-21T05:37:23;38.20;;;16.98;;
48268;SDS011;34088;52.232;5.196;2023-11-21T05:39:49;39.08;;;16.77;;
48268;SDS011;34088;52.232;5.196;2023-11-21T05:42:14;38.35;;;18.15;;
48268;SDS011;34088;52.232;5.196;2023-11-21T05:44:42;37.88;;;17.42;;
48268;SDS011;34088;52.232;5.196;2023-11-21T05:47:08;38.33;;;18.67;;
48268;SDS011;34088;52.232;5.196;2023-11-21T05:52:00;41.50;;;17.98;;
48268;SDS011;34088;52.232;5.196;2023-11-21T05:56:51;37.38;;;18.02;;
48268;SDS011;34088;52.232;5.196;2023-11-21T05:59:16;42.28;;;19.17;;
48268;SDS011;34088;52.232;5.196;2023-11-21T06:01:42;40.67;;;19.23;;
48268;SDS011;34088;52.232;5.196;2023-11-21T06:06:35;41.30;;;17.95;;
48268;SDS011;34088;52.232;5.196;2023-11-21T06:09:01;38.33;;;18.50;;
48268;SDS011;34088;52.232;5.196;2023-11-21T06:11:27;34.40;;;17.23;;
48268;SDS011;34088;52.232;5.196;2023-11-21T06:16:18;38.33;;;16.52;;
48268;SDS011;34088;52.232;5.196;2023-11-21T06:21:10;39.97;;;16.23;;
48268;SDS011;34088;52.232;5.196;2023-11-21T06:23:36;33.25;;;14.70;;
48268;SDS011;34088;52.232;5.196;2023-11-21T06:26:01;33.20;;;14.30;;
48268;SDS011;34088;52.232;5.196;2023-11-21T06:30:51;27.90;;;12.23;;
48268;SDS011;34088;52.232;5.196;2023-11-21T06:33:18;25.65;;;12.32;;
48268;SDS011;34088;52.232;5.196;2023-11-21T06:35:43;27.75;;;10.90;;
48268;SDS011;34088;52.232;5.196;2023-11-21T06:38:09;29.13;;;11.48;;
48268;SDS011;34088;52.232;5.196;2023-11-21T06:40:35;29.95;;;11.02;;
48268;SDS011;34088;52.232;5.196;2023-11-21T06:45:26;28.45;;;10.93;;
48268;SDS011;34088;52.232;5.196;2023-11-21T06:47:51;31.80;;;10.95;;
48268;SDS011;34088;52.232;5.196;2023-11-21T06:52:41;25.50;;;9.55;;
48268;SDS011;34088;52.232;5.196;2023-11-21T06:55:08;35.88;;;10.38;;
48268;SDS011;34088;52.232;5.196;2023-11-21T06:57:34;28.88;;;10.70;;
48268;SDS011;34088;52.232;5.196;2023-11-21T07:00:00;28.00;;;10.80;;
48268;SDS011;34088;52.232;5.196;2023-11-21T07:02:25;27.55;;;10.77;;
48268;SDS011;34088;52.232;5.196;2023-11-21T07:04:50;25.35;;;10.52;;
48268;SDS011;34088;52.232;5.196;2023-11-21T07:07:16;29.98;;;10.73;;
48268;SDS011;34088;52.232;5.196;2023-11-21T07:09:41;21.42;;;9.65;;
48268;SDS011;34088;52.232;5.196;2023-11-21T07:14:35;23.92;;;8.82;;
48268;SDS011;34088;52.232;5.196;2023-11-21T07:17:02;21.70;;;9.80;;
48268;SDS011;34088;52.232;5.196;2023-11-21T07:19:27;26.52;;;9.50;;
48268;SDS011;34088;52.232;5.196;2023-11-21T07:21:53;27.65;;;9.70;;
48268;SDS011;34088;52.232;5.196;2023-11-21T07:26:43;23.38;;;8.80;;
48268;SDS011;34088;52.232;5.196;2023-11-21T07:29:09;18.33;;;7.95;;
48268;SDS011;34088;52.232;5.196;2023-11-21T07:31:36;23.05;;;8.43;;
48268;SDS011;34088;52.232;5.196;2023-11-21T07:34:01;24.73;;;8.88;;
48268;SDS011;34088;52.232;5.196;2023-11-21T07:38:52;24.55;;;9.15;;
48268;SDS011;34088;52.232;5.196;2023-11-21T07:43:43;20.27;;;8.35;;
48268;SDS011;34088;52.232;5.196;2023-11-21T07:46:09;19.48;;;7.78;;
48268;SDS011;34088;52.232;5.196;2023-11-21T07:48:37;24.92;;;8.82;;
48268;SDS011;34088;52.232;5.196;2023-11-21T07:51:03;26.02;;;9.00;;
48268;SDS011;34088;52.232;5.196;2023-11-21T07:53:29;27.02;;;9.57;;
48268;SDS011;34088;52.232;5.196;2023-11-21T07:55:55;31.08;;;10.32;;
48268;SDS011;34088;52.232;5.196;2023-11-21T07:58:21;27.88;;;10.82;;
48268;SDS011;34088;52.232;5.196;2023-11-21T08:00:47;29.98;;;11.40;;
48268;SDS011;34088;52.232;5.196;2023-11-21T08:03:13;26.35;;;10.32;;
48268;SDS011;34088;52.232;5.196;2023-11-21T08:05:38;27.40;;;11.15;;
48268;SDS011;34088;52.232;5.196;2023-11-21T08:08:04;32.20;;;11.85;;
48268;SDS011;34088;52.232;5.196;2023-11-21T08:12:55;28.50;;;11.48;;
48268;SDS011;34088;52.232;5.196;2023-11-21T08:17:46;28.53;;;11.73;;
48268;SDS011;34088;52.232;5.196;2023-11-21T08:22:37;29.33;;;12.00;;
48268;SDS011;34088;52.232;5.196;2023-11-21T08:25:02;28.52;;;12.65;;
48268;SDS011;34088;52.232;5.196;2023-11-21T08:27:29;21.60;;;10.18;;
48268;SDS011;34088;52.232;5.196;2023-11-21T08:29:55;26.10;;;10.85;;
48268;SDS011;34088;52.232;5.196;2023-11-21T08:34:46;22.08;;;10.65;;
48268;SDS011;34088;52.232;5.196;2023-11-21T08:37:15;17.48;;;9.35;;
48268;SDS011;34088;52.232;5.196;2023-11-21T08:39:41;22.75;;;10.65;;
48268;SDS011;34088;52.232;5.196;2023-11-21T08:42:06;18.67;;;9.77;;
48268;SDS011;34088;52.232;5.196;2023-11-21T08:44:33;24.73;;;11.13;;
48268;SDS011;34088;52.232;5.196;2023-11-21T08:46:58;23.50;;;9.65;;
48268;SDS011;34088;52.232;5.196;2023-11-21T08:49:23;19.67;;;9.88;;
48268;SDS011;34088;52.232;5.196;2023-11-21T08:51:51;18.05;;;8.98;;
48268;SDS011;34088;52.232;5.196;2023-11-21T08:54:16;23.77;;;9.55;;
48268;SDS011;34088;52.232;5.196;2023-11-21T08:56:43;18.75;;;8.95;;
48268;SDS011;34088;52.232;5.196;2023-11-21T08:59:08;18.17;;;8.75;;
48268;SDS011;34088;52.232;5.196;2023-11-21T09:01:33;15.20;;;7.70;;
48268;SDS011;34088;52.232;5.196;2023-11-21T09:03:59;13.30;;;7.63;;
48268;SDS011;34088;52.232;5.196;2023-11-21T09:06:24;16.27;;;7.40;;
48268;SDS011;34088;52.232;5.196;2023-11-21T09:08:49;18.90;;;8.63;;
48268;SDS011;34088;52.232;5.196;2023-11-21T09:11:15;12.52;;;6.78;;
48268;SDS011;34088;52.232;5.196;2023-11-21T09:16:06;16.57;;;8.47;;
48268;SDS011;34088;52.232;5.196;2023-11-21T09:18:31;11.88;;;6.95;;
48268;SDS011;34088;52.232;5.196;2023-11-21T09:23:22;9.40;;;5.40;;
48268;SDS011;34088;52.232;5.196;2023-11-21T09:28:15;18.10;;;9.33;;
48268;SDS011;34088;52.232;5.196;2023-11-21T09:30:40;12.48;;;6.30;;
48268;SDS011;34088;52.232;5.196;2023-11-21T09:35:31;14.95;;;6.75;;
48268;SDS011;34088;52.232;5.196;2023-11-21T09:37:57;11.82;;;6.78;;
48268;SDS011;34088;52.232;5.196;2023-11-21T09:40:22;13.20;;;6.82;;
48268;SDS011;34088;52.232;5.196;2023-11-21T09:42:49;13.27;;;6.55;;
48268;SDS011;34088;52.232;5.196;2023-11-21T09:47:51;12.73;;;6.75;;
48268;SDS011;34088;52.232;5.196;2023-11-21T09:50:17;10.40;;;6.15;;
48268;SDS011;34088;52.232;5.196;2023-11-21T09:53:30;13.30;;;7.13;;
48268;SDS011;34088;52.232;5.196;2023-11-21T09:55:39;10.95;;;5.90;;
48268;SDS011;34088;52.232;5.196;2023-11-21T09:58:07;11.23;;;5.95;;
48268;SDS011;34088;52.232;5.196;2023-11-21T10:00:36;13.60;;;7.03;;
48268;SDS011;34088;52.232;5.196;2023-11-21T10:03:05;14.77;;;7.72;;
48268;SDS011;34088;52.232;5.196;2023-11-21T10:05:30;14.63;;;7.78;;
48268;SDS011;34088;52.232;5.196;2023-11-21T10:07:59;14.40;;;7.35;;
48268;SDS011;34088;52.232;5.196;2023-11-21T10:10:25;17.85;;;8.60;;
48268;SDS011;34088;52.232;5.196;2023-11-21T10:12:52;14.98;;;7.70;;
48268;SDS011;34088;52.232;5.196;2023-11-21T10:15:21;16.55;;;8.82;;
48268;SDS011;34088;52.232;5.196;2023-11-21T10:17:51;14.80;;;8.55;;
48268;SDS011;34088;52.232;5.196;2023-11-21T10:20:18;16.60;;;7.95;;
48268;SDS011;34088;52.232;5.196;2023-11-21T10:22:47;16.83;;;8.82;;
48268;SDS011;34088;52.232;5.196;2023-11-21T10:25:14;22.00;;;10.85;;
48268;SDS011;34088;52.232;5.196;2023-11-21T10:27:39;21.73;;;10.05;;
48268;SDS011;34088;52.232;5.196;2023-11-21T10:30:06;25.17;;;11.55;;
48268;SDS011;34088;52.232;5.196;2023-11-21T10:32:36;24.40;;;11.57;;
48268;SDS011;34088;52.232;5.196;2023-11-21T10:35:02;22.92;;;10.85;;
48268;SDS011;34088;52.232;5.196;2023-11-21T10:37:32;16.60;;;9.32;;
48268;SDS011;34088;52.232;5.196;2023-11-21T10:39:58;17.67;;;8.88;;
48268;SDS011;34088;52.232;5.196;2023-11-21T10:44:49;17.77;;;9.80;;
48268;SDS011;34088;52.232;5.196;2023-11-21T10:49:41;16.52;;;9.82;;
48268;SDS011;34088;52.232;5.196;2023-11-21T10:52:06;22.10;;;11.80;;
48268;SDS011;34088;52.232;5.196;2023-11-21T10:54:31;26.35;;;12.10;;
48268;SDS011;34088;52.232;5.196;2023-11-21T10:56:57;21.45;;;11.80;;
48268;SDS011;34088;52.232;5.196;2023-11-21T10:59:25;24.42;;;13.05;;
48268;SDS011;34088;52.232;5.196;2023-11-21T11:01:54;22.08;;;12.70;;
48268;SDS011;34088;52.232;5.196;2023-11-21T11:04:23;30.10;;;13.38;;
48268;SDS011;34088;52.232;5.196;2023-11-21T11:06:56;31.25;;;14.27;;
48268;SDS011;34088;52.232;5.196;2023-11-21T11:09:26;28.58;;;14.45;;
48268;SDS011;34088;52.232;5.196;2023-11-21T11:11:52;34.75;;;15.55;;
48268;SDS011;34088;52.232;5.196;2023-11-21T11:14:19;33.72;;;15.60;;
48268;SDS011;34088;52.232;5.196;2023-11-21T11:16:44;35.88;;;15.75;;
48268;SDS011;34088;52.232;5.196;2023-11-21T11:19:10;37.25;;;16.83;;
48268;SDS011;34088;52.232;5.196;2023-11-21T11:24:30;30.73;;;14.27;;
48268;SDS011;34088;52.232;5.196;2023-11-21T11:27:05;32.58;;;15.15;;
48268;SDS011;34088;52.232;5.196;2023-11-21T11:35:00;32.95;;;14.85;;
48268;SDS011;34088;52.232;5.196;2023-11-21T11:37:32;27.67;;;14.05;;
48268;SDS011;34088;52.232;5.196;2023-11-21T11:39:58;26.80;;;12.48;;
48268;SDS011;34088;52.232;5.196;2023-11-21T11:42:24;23.75;;;12.05;;
48268;SDS011;34088;52.232;5.196;2023-11-21T11:44:50;24.48;;;11.95;;
48268;SDS011;34088;52.232;5.196;2023-11-21T11:52:32;22.08;;;10.35;;
48268;SDS011;34088;52.232;5.196;2023-11-21T11:54:59;18.95;;;9.38;;
48268;SDS011;34088;52.232;5.196;2023-11-21T11:57:25;16.23;;;9.23;;
48268;SDS011;34088;52.232;5.196;2023-11-21T12:00:09;19.85;;;9.68;;
48268;SDS011;34088;52.232;5.196;2023-11-21T12:02:42;15.75;;;9.25;;
48268;SDS011;34088;52.232;5.196;2023-11-21T12:05:10;19.95;;;9.93;;
48268;SDS011;34088;52.232;5.196;2023-11-21T12:10:20;15.93;;;8.80;;
48268;SDS011;34088;52.232;5.196;2023-11-21T12:12:50;18.48;;;9.80;;
48268;SDS011;34088;52.232;5.196;2023-11-21T12:15:17;18.45;;;9.70;;
48268;SDS011;34088;52.232;5.196;2023-11-21T12:17:44;21.70;;;10.93;;
48268;SDS011;34088;52.232;5.196;2023-11-21T12:20:11;22.85;;;11.32;;
48268;SDS011;34088;52.232;5.196;2023-11-21T12:22:49;24.20;;;12.18;;
48268;SDS011;34088;52.232;5.196;2023-11-21T12:25:20;25.55;;;12.52;;
48268;SDS011;34088;52.232;5.196;2023-11-21T12:27:50;25.83;;;13.07;;
48268;SDS011;34088;52.232;5.196;2023-11-21T12:30:17;26.13;;;12.77;;
48268;SDS011;34088;52.232;5.196;2023-11-21T12:32:44;26.17;;;13.63;;
48268;SDS011;34088;52.232;5.196;2023-11-21T12:35:12;27.10;;;13.32;;
48268;SDS011;34088;52.232;5.196;2023-11-21T12:37:38;29.70;;;13.73;;
48268;SDS011;34088;52.232;5.196;2023-11-21T12:40:07;29.73;;;13.45;;
48268;SDS011;34088;52.232;5.196;2023-11-21T12:42:36;26.90;;;13.18;;
48268;SDS011;34088;52.232;5.196;2023-11-21T12:45:07;26.58;;;13.13;;
48268;SDS011;34088;52.232;5.196;2023-11-21T12:47:34;25.70;;;12.18;;
48268;SDS011;34088;52.232;5.196;2023-11-21T12:50:01;28.58;;;12.38;;
48268;SDS011;34088;52.232;5.196;2023-11-21T12:52:28;29.05;;;13.20;;
48268;SDS011;34088;52.232;5.196;2023-11-21T12:54:53;25.85;;;12.32;;
48268;SDS011;34088;52.232;5.196;2023-11-21T12:59:45;29.35;;;13.45;;
48268;SDS011;34088;52.232;5.196;2023-11-21T13:04:39;35.15;;;15.38;;
48268;SDS011;34088;52.232;5.196;2023-11-21T13:07:04;37.78;;;16.27;;
48268;SDS011;34088;52.232;5.196;2023-11-21T13:09:39;39.05;;;16.80;;
48268;SDS011;34088;52.232;5.196;2023-11-21T13:12:06;33.92;;;15.68;;
48268;SDS011;34088;52.232;5.196;2023-11-21T13:14:33;35.05;;;17.15;;
48268;SDS011;34088;52.232;5.196;2023-11-21T13:16:59;36.88;;;16.27;;
48268;SDS011;34088;52.232;5.196;2023-11-21T13:19:24;34.23;;;15.40;;
48268;SDS011;34088;52.232;5.196;2023-11-21T13:21:50;34.13;;;15.32;;
48268;SDS011;34088;52.232;5.196;2023-11-21T13:26:41;28.20;;;14.13;;
48268;SDS011;34088;52.232;5.196;2023-11-21T13:29:07;30.88;;;14.88;;
48268;SDS011;34088;52.232;5.196;2023-11-21T13:31:32;30.37;;;14.67;;
48268;SDS011;34088;52.232;5.196;2023-11-21T13:34:01;31.20;;;15.48;;
48268;SDS011;34088;52.232;5.196;2023-11-21T13:36:30;25.02;;;13.07;;
48268;SDS011;34088;52.232;5.196;2023-11-21T13:38:58;25.38;;;14.05;;
48268;SDS011;34088;52.232;5.196;2023-11-21T13:41:24;25.27;;;13.73;;
48268;SDS011;34088;52.232;5.196;2023-11-21T13:43:55;22.63;;;11.90;;
48268;SDS011;34088;52.232;5.196;2023-11-21T13:46:31;19.47;;;11.63;;
48268;SDS011;34088;52.232;5.196;2023-11-21T13:49:02;18.08;;;11.02;;
48268;SDS011;34088;52.232;5.196;2023-11-21T13:51:27;19.08;;;11.73;;
48268;SDS011;34088;52.232;5.196;2023-11-21T13:54:02;21.88;;;12.73;;
48268;SDS011;34088;52.232;5.196;2023-11-21T13:56:30;19.52;;;11.45;;
48268;SDS011;34088;52.232;5.196;2023-11-21T13:58:56;25.05;;;14.10;;
48268;SDS011;34088;52.232;5.196;2023-11-21T14:01:24;22.85;;;13.20;;
48268;SDS011;34088;52.232;5.196;2023-11-21T14:04:12;21.83;;;13.70;;
48268;SDS011;34088;52.232;5.196;2023-11-21T14:06:43;21.33;;;13.95;;
48268;SDS011;34088;52.232;5.196;2023-11-21T14:09:23;21.33;;;14.13;;
48268;SDS011;34088;52.232;5.196;2023-11-21T14:11:57;22.90;;;13.43;;
48268;SDS011;34088;52.232;5.196;2023-11-21T14:14:24;21.30;;;13.50;;
48268;SDS011;34088;52.232;5.196;2023-11-21T14:16:51;21.63;;;13.07;;
48268;SDS011;34088;52.232;5.196;2023-11-21T14:19:17;23.17;;;11.98;;
48268;SDS011;34088;52.232;5.196;2023-11-21T14:21:46;19.35;;;12.30;;
48268;SDS011;34088;52.232;5.196;2023-11-21T14:24:13;19.73;;;12.05;;
48268;SDS011;34088;52.232;5.196;2023-11-21T14:26:42;20.52;;;13.45;;
48268;SDS011;34088;52.232;5.196;2023-11-21T14:29:11;20.55;;;11.65;;
48268;SDS011;34088;52.232;5.196;2023-11-21T14:31:39;20.38;;;11.90;;
48268;SDS011;34088;52.232;5.196;2023-11-21T14:34:08;19.83;;;12.07;;
48268;SDS011;34088;52.232;5.196;2023-11-21T14:36:34;20.67;;;13.43;;
48268;SDS011;34088;52.232;5.196;2023-11-21T14:39:01;19.23;;;11.48;;
48268;SDS011;34088;52.232;5.196;2023-11-21T14:41:26;19.05;;;10.43;;
48268;SDS011;34088;52.232;5.196;2023-11-21T14:43:53;16.90;;;10.98;;
48268;SDS011;34088;52.232;5.196;2023-11-21T14:46:20;17.73;;;11.82;;
48268;SDS011;34088;52.232;5.196;2023-11-21T14:48:45;21.20;;;12.30;;
48268;SDS011;34088;52.232;5.196;2023-11-21T14:51:24;16.00;;;10.48;;
48268;SDS011;34088;52.232;5.196;2023-11-21T14:53:57;35.00;;;20.65;;
48268;SDS011;34088;52.232;5.196;2023-11-21T14:56:31;18.85;;;10.90;;
48268;SDS011;34088;52.232;5.196;2023-11-21T14:58:59;20.90;;;12.98;;
48268;SDS011;34088;52.232;5.196;2023-11-21T15:01:31;25.88;;;15.98;;
48268;SDS011;34088;52.232;5.196;2023-11-21T15:04:18;24.60;;;15.03;;
48268;SDS011;34088;52.232;5.196;2023-11-21T15:07:03;23.58;;;14.85;;
48268;SDS011;34088;52.232;5.196;2023-11-21T15:09:29;23.00;;;14.98;;
48268;SDS011;34088;52.232;5.196;2023-11-21T15:11:55;28.20;;;16.45;;
48268;SDS011;34088;52.232;5.196;2023-11-21T15:14:28;23.23;;;14.30;;
48268;SDS011;34088;52.232;5.196;2023-11-21T15:16:57;23.75;;;16.30;;
48268;SDS011;34088;52.232;5.196;2023-11-21T15:19:25;23.02;;;14.73;;
48268;SDS011;34088;52.232;5.196;2023-11-21T15:21:51;20.88;;;14.75;;
48268;SDS011;34088;52.232;5.196;2023-11-21T15:24:16;21.38;;;14.48;;
48268;SDS011;34088;52.232;5.196;2023-11-21T15:26:42;21.48;;;14.93;;
48268;SDS011;34088;52.232;5.196;2023-11-21T15:29:07;20.60;;;14.00;;
48268;SDS011;34088;52.232;5.196;2023-11-21T15:31:33;17.58;;;11.57;;
48268;SDS011;34088;52.232;5.196;2023-11-21T15:33:58;18.23;;;12.68;;
48268;SDS011;34088;52.232;5.196;2023-11-21T15:36:27;16.17;;;10.82;;
48268;SDS011;34088;52.232;5.196;2023-11-21T15:38:53;17.00;;;12.23;;
48268;SDS011;34088;52.232;5.196;2023-11-21T15:43:44;16.83;;;12.55;;
48268;SDS011;34088;52.232;5.196;2023-11-21T15:46:10;15.50;;;10.70;;
48268;SDS011;34088;52.232;5.196;2023-11-21T15:48:35;16.30;;;11.13;;
48268;SDS011;34088;52.232;5.196;2023-11-21T15:51:03;16.50;;;10.57;;
48268;SDS011;34088;52.232;5.196;2023-11-21T15:53:29;18.38;;;12.25;;
48268;SDS011;34088;52.232;5.196;2023-11-21T15:55:56;18.15;;;12.10;;
48268;SDS011;34088;52.232;5.196;2023-11-21T15:58:21;16.05;;;12.30;;
48268;SDS011;34088;52.232;5.196;2023-11-21T16:00:46;17.40;;;12.03;;
48268;SDS011;34088;52.232;5.196;2023-11-21T16:03:12;18.35;;;12.43;;
48268;SDS011;34088;52.232;5.196;2023-11-21T16:05:39;16.63;;;11.82;;
48268;SDS011;34088;52.232;5.196;2023-11-21T16:08:05;17.15;;;11.43;;
48268;SDS011;34088;52.232;5.196;2023-11-21T16:10:30;17.27;;;12.13;;
48268;SDS011;34088;52.232;5.196;2023-11-21T16:12:55;20.00;;;13.80;;
48268;SDS011;34088;52.232;5.196;2023-11-21T16:15:21;19.13;;;13.50;;
48268;SDS011;34088;52.232;5.196;2023-11-21T16:17:47;21.30;;;14.68;;
48268;SDS011;34088;52.232;5.196;2023-11-21T16:20:12;20.50;;;14.00;;
48268;SDS011;34088;52.232;5.196;2023-11-21T16:22:40;17.95;;;13.10;;
48268;SDS011;34088;52.232;5.196;2023-11-21T16:25:06;19.95;;;14.05;;
48268;SDS011;34088;52.232;5.196;2023-11-21T16:27:36;20.50;;;13.63;;